FNHU

Nova Lisboa Airport

Huambo, Angola
METAR FNHU 201100Z 15005KT 8000 RA BKN012 24/18 Q1018
Observed Flight Rules
Jan-20 @ 11:00 UTC (2 hours ago) Marginal Visual Flight Rules
Wind Visibility Clouds Conditions
150° at 5 knots 7,998 meters
  • Broken at 1,200' AGL
  • Rain
Temperatures Readings
Current 24°C / 75°F
Dewpoint 18°C / 64°F
Humidity 69%
Altimeter 30.06" Hg
Pressure 1018 hPa
Elevation 1701
METAR FNHU 201100Z 15005KT 8000 RA BKN012 24/18 Q1018
Observed Flight Rules
Jan-20 @ 11:00 UTC
(2 hours ago)
MVFR
Wind Visibility
150° at 5 knots 7,998 meters
Clouds
  • Broken at 1,200' AGL
Conditions
  • Rain
Temperature Dewpoint
24°C / 75°F 18°C / 64°F
Humidity Altimeter Pressure
69% 30.06" Hg 1018 hPa